sensor_id;sensor_type;location;lat;lon;timestamp;temperature;humidity
33988;DHT22;37428;53.580;-1.666;2023-06-05T00:01:37;11.90;75.40
33988;DHT22;37428;53.580;-1.666;2023-06-05T00:04:39;11.80;75.90
33988;DHT22;37428;53.580;-1.666;2023-06-05T00:07:41;11.80;75.90
33988;DHT22;37428;53.580;-1.666;2023-06-05T00:10:45;11.90;76.00
33988;DHT22;37428;53.580;-1.666;2023-06-05T00:13:47;12.00;75.20
33988;DHT22;37428;53.580;-1.666;2023-06-05T00:16:49;12.00;75.40
33988;DHT22;37428;53.580;-1.666;2023-06-05T00:19:52;12.00;75.40
33988;DHT22;37428;53.580;-1.666;2023-06-05T00:22:54;12.00;75.20
33988;DHT22;37428;53.580;-1.666;2023-06-05T00:25:58;12.10;75.20
33988;DHT22;37428;53.580;-1.666;2023-06-05T00:29:01;12.20;75.00
33988;DHT22;37428;53.580;-1.666;2023-06-05T00:32:03;12.30;74.80
33988;DHT22;37428;53.580;-1.666;2023-06-05T00:35:06;12.30;74.80
33988;DHT22;37428;53.580;-1.666;2023-06-05T00:38:09;12.30;74.60
33988;DHT22;37428;53.580;-1.666;2023-06-05T00:41:12;12.30;74.90
33988;DHT22;37428;53.580;-1.666;2023-06-05T00:44:17;12.30;74.60
33988;DHT22;37428;53.580;-1.666;2023-06-05T00:47:20;12.30;74.30
33988;DHT22;37428;53.580;-1.666;2023-06-05T00:50:22;12.30;74.70
33988;DHT22;37428;53.580;-1.666;2023-06-05T00:53:26;12.20;74.50
33988;DHT22;37428;53.580;-1.666;2023-06-05T00:56:30;12.20;74.50
33988;DHT22;37428;53.580;-1.666;2023-06-05T00:59:36;12.10;75.20
33988;DHT22;37428;53.580;-1.666;2023-06-05T01:02:39;12.20;74.80
33988;DHT22;37428;53.580;-1.666;2023-06-05T01:05:41;12.10;75.20
33988;DHT22;37428;53.580;-1.666;2023-06-05T01:08:45;12.10;75.10
33988;DHT22;37428;53.580;-1.666;2023-06-05T01:11:53;12.10;75.20
33988;DHT22;37428;53.580;-1.666;2023-06-05T01:14:58;12.10;75.40
33988;DHT22;37428;53.580;-1.666;2023-06-05T01:18:03;12.30;75.10
33988;DHT22;37428;53.580;-1.666;2023-06-05T01:21:10;12.30;74.80
33988;DHT22;37428;53.580;-1.666;2023-06-05T01:24:15;12.20;74.70
33988;DHT22;37428;53.580;-1.666;2023-06-05T01:27:22;12.20;74.60
33988;DHT22;37428;53.580;-1.666;2023-06-05T01:30:32;12.10;75.00
33988;DHT22;37428;53.580;-1.666;2023-06-05T01:33:38;12.20;75.20
33988;DHT22;37428;53.580;-1.666;2023-06-05T01:36:45;12.20;75.40
33988;DHT22;37428;53.580;-1.666;2023-06-05T01:39:48;12.20;75.60
33988;DHT22;37428;53.580;-1.666;2023-06-05T01:42:53;12.20;75.50
33988;DHT22;37428;53.580;-1.666;2023-06-05T01:45:56;12.10;75.50
33988;DHT22;37428;53.580;-1.666;2023-06-05T01:49:00;12.00;75.40
33988;DHT22;37428;53.580;-1.666;2023-06-05T01:52:03;12.10;75.30
33988;DHT22;37428;53.580;-1.666;2023-06-05T01:55:08;12.10;75.20
33988;DHT22;37428;53.580;-1.666;2023-06-05T01:58:15;11.90;75.50
33988;DHT22;37428;53.580;-1.666;2023-06-05T02:01:17;11.90;75.00
33988;DHT22;37428;53.580;-1.666;2023-06-05T02:04:23;11.70;75.50
33988;DHT22;37428;53.580;-1.666;2023-06-05T02:07:25;11.70;75.60
33988;DHT22;37428;53.580;-1.666;2023-06-05T02:10:29;11.80;76.00
33988;DHT22;37428;53.580;-1.666;2023-06-05T02:13:31;11.70;75.80
33988;DHT22;37428;53.580;-1.666;2023-06-05T02:16:34;11.60;75.90
33988;DHT22;37428;53.580;-1.666;2023-06-05T02:19:37;11.70;75.60
33988;DHT22;37428;53.580;-1.666;2023-06-05T02:22:39;11.70;75.70
33988;DHT22;37428;53.580;-1.666;2023-06-05T02:25:42;11.70;75.60
33988;DHT22;37428;53.580;-1.666;2023-06-05T02:28:44;11.80;74.30
33988;DHT22;37428;53.580;-1.666;2023-06-05T02:31:46;11.70;74.90
33988;DHT22;37428;53.580;-1.666;2023-06-05T02:34:48;11.80;74.50
33988;DHT22;37428;53.580;-1.666;2023-06-05T02:37:50;11.70;74.90
33988;DHT22;37428;53.580;-1.666;2023-06-05T02:40:54;11.70;75.00
33988;DHT22;37428;53.580;-1.666;2023-06-05T02:43:56;11.70;74.90
33988;DHT22;37428;53.580;-1.666;2023-06-05T02:47:00;11.70;75.00
33988;DHT22;37428;53.580;-1.666;2023-06-05T02:50:02;11.80;74.90
33988;DHT22;37428;53.580;-1.666;2023-06-05T02:53:04;11.70;75.00
33988;DHT22;37428;53.580;-1.666;2023-06-05T02:56:08;11.70;75.30
33988;DHT22;37428;53.580;-1.666;2023-06-05T02:59:10;11.70;75.50
33988;DHT22;37428;53.580;-1.666;2023-06-05T03:02:13;11.70;75.30
33988;DHT22;37428;53.580;-1.666;2023-06-05T03:05:15;11.90;75.20
33988;DHT22;37428;53.580;-1.666;2023-06-05T03:08:24;11.90;74.40
33988;DHT22;37428;53.580;-1.666;2023-06-05T03:11:28;11.90;74.40
33988;DHT22;37428;53.580;-1.666;2023-06-05T03:14:30;11.90;74.60
33988;DHT22;37428;53.580;-1.666;2023-06-05T03:17:32;11.80;74.60
33988;DHT22;37428;53.580;-1.666;2023-06-05T03:20:35;11.90;74.60
33988;DHT22;37428;53.580;-1.666;2023-06-05T03:23:38;11.90;74.10
33988;DHT22;37428;53.580;-1.666;2023-06-05T03:26:43;11.90;74.50
33988;DHT22;37428;53.580;-1.666;2023-06-05T03:29:45;11.80;73.90
33988;DHT22;37428;53.580;-1.666;2023-06-05T03:32:47;11.70;74.10
33988;DHT22;37428;53.580;-1.666;2023-06-05T03:35:49;11.70;74.70
33988;DHT22;37428;53.580;-1.666;2023-06-05T03:38:53;11.70;75.20
33988;DHT22;37428;53.580;-1.666;2023-06-05T03:41:56;11.70;75.40
33988;DHT22;37428;53.580;-1.666;2023-06-05T03:44:58;11.70;74.90
33988;DHT22;37428;53.580;-1.666;2023-06-05T03:48:01;11.60;75.60
33988;DHT22;37428;53.580;-1.666;2023-06-05T03:51:03;11.50;75.40
33988;DHT22;37428;53.580;-1.666;2023-06-05T03:54:06;11.40;75.40
33988;DHT22;37428;53.580;-1.666;2023-06-05T03:57:10;11.50;75.10
33988;DHT22;37428;53.580;-1.666;2023-06-05T04:00:14;11.30;76.00
33988;DHT22;37428;53.580;-1.666;2023-06-05T04:03:17;11.40;76.00
33988;DHT22;37428;53.580;-1.666;2023-06-05T04:06:19;11.40;76.20
33988;DHT22;37428;53.580;-1.666;2023-06-05T04:09:21;11.30;76.20
33988;DHT22;37428;53.580;-1.666;2023-06-05T04:12:25;11.30;75.60
33988;DHT22;37428;53.580;-1.666;2023-06-05T04:15:27;11.30;75.00
33988;DHT22;37428;53.580;-1.666;2023-06-05T04:18:29;11.30;75.10
33988;DHT22;37428;53.580;-1.666;2023-06-05T04:21:32;11.20;75.10
33988;DHT22;37428;53.580;-1.666;2023-06-05T04:24:34;11.20;74.80
33988;DHT22;37428;53.580;-1.666;2023-06-05T04:27:41;11.10;75.30
33988;DHT22;37428;53.580;-1.666;2023-06-05T04:30:43;11.20;75.30
33988;DHT22;37428;53.580;-1.666;2023-06-05T04:33:46;11.10;75.30
33988;DHT22;37428;53.580;-1.666;2023-06-05T04:36:48;10.90;75.50
33988;DHT22;37428;53.580;-1.666;2023-06-05T04:39:52;10.90;75.30
33988;DHT22;37428;53.580;-1.666;2023-06-05T04:42:56;11.00;75.40
33988;DHT22;37428;53.580;-1.666;2023-06-05T04:45:59;10.90;75.20
33988;DHT22;37428;53.580;-1.666;2023-06-05T04:49:02;10.80;75.80
33988;DHT22;37428;53.580;-1.666;2023-06-05T04:52:05;10.80;76.00
33988;DHT22;37428;53.580;-1.666;2023-06-05T04:55:08;10.80;76.20
33988;DHT22;37428;53.580;-1.666;2023-06-05T04:58:11;10.80;76.60
33988;DHT22;37428;53.580;-1.666;2023-06-05T05:01:14;10.90;75.70
33988;DHT22;37428;53.580;-1.666;2023-06-05T05:04:16;10.90;75.10
33988;DHT22;37428;53.580;-1.666;2023-06-05T05:07:18;11.00;74.70
33988;DHT22;37428;53.580;-1.666;2023-06-05T05:10:23;11.00;74.30
33988;DHT22;37428;53.580;-1.666;2023-06-05T05:13:26;11.10;73.80
33988;DHT22;37428;53.580;-1.666;2023-06-05T05:16:28;11.00;73.30
33988;DHT22;37428;53.580;-1.666;2023-06-05T05:19:31;10.90;73.80
33988;DHT22;37428;53.580;-1.666;2023-06-05T05:22:33;10.90;74.00
33988;DHT22;37428;53.580;-1.666;2023-06-05T05:25:37;10.90;74.70
33988;DHT22;37428;53.580;-1.666;2023-06-05T05:28:40;10.90;74.90
33988;DHT22;37428;53.580;-1.666;2023-06-05T05:31:43;10.90;74.70
33988;DHT22;37428;53.580;-1.666;2023-06-05T05:34:45;10.90;75.00
33988;DHT22;37428;53.580;-1.666;2023-06-05T05:37:48;10.90;74.90
33988;DHT22;37428;53.580;-1.666;2023-06-05T05:40:50;10.90;74.80
33988;DHT22;37428;53.580;-1.666;2023-06-05T05:43:53;10.90;75.10
33988;DHT22;37428;53.580;-1.666;2023-06-05T05:46:55;10.90;75.10
33988;DHT22;37428;53.580;-1.666;2023-06-05T05:49:57;10.90;75.10
33988;DHT22;37428;53.580;-1.666;2023-06-05T05:52:59;10.80;75.90
33988;DHT22;37428;53.580;-1.666;2023-06-05T05:56:02;10.80;75.30
33988;DHT22;37428;53.580;-1.666;2023-06-05T05:59:06;10.80;75.00
33988;DHT22;37428;53.580;-1.666;2023-06-05T06:02:08;10.80;75.50
33988;DHT22;37428;53.580;-1.666;2023-06-05T06:05:10;10.80;75.70
33988;DHT22;37428;53.580;-1.666;2023-06-05T06:08:13;10.90;75.20
33988;DHT22;37428;53.580;-1.666;2023-06-05T06:11:16;10.80;75.10
33988;DHT22;37428;53.580;-1.666;2023-06-05T06:14:19;10.80;74.80
33988;DHT22;37428;53.580;-1.666;2023-06-05T06:17:21;10.90;74.70
33988;DHT22;37428;53.580;-1.666;2023-06-05T06:20:24;10.90;74.20
33988;DHT22;37428;53.580;-1.666;2023-06-05T06:23:28;10.80;74.10
33988;DHT22;37428;53.580;-1.666;2023-06-05T06:26:30;10.80;75.00
33988;DHT22;37428;53.580;-1.666;2023-06-05T06:29:33;10.90;74.30
33988;DHT22;37428;53.580;-1.666;2023-06-05T06:32:36;10.90;74.40
33988;DHT22;37428;53.580;-1.666;2023-06-05T06:35:38;11.10;74.40
33988;DHT22;37428;53.580;-1.666;2023-06-05T06:38:40;11.10;74.20
33988;DHT22;37428;53.580;-1.666;2023-06-05T06:41:42;11.20;74.50
33988;DHT22;37428;53.580;-1.666;2023-06-05T06:44:46;11.30;74.10
33988;DHT22;37428;53.580;-1.666;2023-06-05T06:47:48;11.30;73.70
33988;DHT22;37428;53.580;-1.666;2023-06-05T06:50:50;11.30;73.90
33988;DHT22;37428;53.580;-1.666;2023-06-05T06:53:53;11.30;73.60
33988;DHT22;37428;53.580;-1.666;2023-06-05T06:56:55;11.30;74.10
33988;DHT22;37428;53.580;-1.666;2023-06-05T06:59:58;11.40;73.70
33988;DHT22;37428;53.580;-1.666;2023-06-05T07:03:00;11.40;72.70
33988;DHT22;37428;53.580;-1.666;2023-06-05T07:06:03;11.50;72.60
33988;DHT22;37428;53.580;-1.666;2023-06-05T07:09:05;11.60;71.50
33988;DHT22;37428;53.580;-1.666;2023-06-05T07:12:09;11.60;71.50
33988;DHT22;37428;53.580;-1.666;2023-06-05T07:15:12;11.70;71.40
33988;DHT22;37428;53.580;-1.666;2023-06-05T07:18:16;11.80;70.70
33988;DHT22;37428;53.580;-1.666;2023-06-05T07:21:19;11.80;70.30
33988;DHT22;37428;53.580;-1.666;2023-06-05T07:24:21;11.80;70.60
33988;DHT22;37428;53.580;-1.666;2023-06-05T07:27:25;11.90;69.80
33988;DHT22;37428;53.580;-1.666;2023-06-05T07:30:30;12.00;69.10
33988;DHT22;37428;53.580;-1.666;2023-06-05T07:33:32;12.20;68.80
33988;DHT22;37428;53.580;-1.666;2023-06-05T07:36:34;13.00;68.00
33988;DHT22;37428;53.580;-1.666;2023-06-05T07:39:37;13.30;64.40
33988;DHT22;37428;53.580;-1.666;2023-06-05T07:42:39;13.80;62.80
33988;DHT22;37428;53.580;-1.666;2023-06-05T07:45:43;14.30;60.60
33988;DHT22;37428;53.580;-1.666;2023-06-05T07:48:45;14.90;59.20
33988;DHT22;37428;53.580;-1.666;2023-06-05T07:51:47;14.80;58.40
33988;DHT22;37428;53.580;-1.666;2023-06-05T07:54:50;14.80;58.20
33988;DHT22;37428;53.580;-1.666;2023-06-05T07:57:53;14.70;58.10
33988;DHT22;37428;53.580;-1.666;2023-06-05T08:00:57;14.70;58.20
33988;DHT22;37428;53.580;-1.666;2023-06-05T08:03:59;14.50;58.40
33988;DHT22;37428;53.580;-1.666;2023-06-05T08:07:02;14.70;58.50
33988;DHT22;37428;53.580;-1.666;2023-06-05T08:10:07;15.30;57.60
33988;DHT22;37428;53.580;-1.666;2023-06-05T08:13:10;15.20;57.00
33988;DHT22;37428;53.580;-1.666;2023-06-05T08:16:14;15.30;55.00
33988;DHT22;37428;53.580;-1.666;2023-06-05T08:19:16;15.00;57.30
33988;DHT22;37428;53.580;-1.666;2023-06-05T08:22:18;14.80;58.50
33988;DHT22;37428;53.580;-1.666;2023-06-05T08:25:20;15.10;58.40
33988;DHT22;37428;53.580;-1.666;2023-06-05T08:28:22;15.20;56.90
33988;DHT22;37428;53.580;-1.666;2023-06-05T08:31:26;15.20;58.50
33988;DHT22;37428;53.580;-1.666;2023-06-05T08:34:28;15.00;58.10
33988;DHT22;37428;53.580;-1.666;2023-06-05T08:37:30;14.90;59.00
33988;DHT22;37428;53.580;-1.666;2023-06-05T08:40:33;15.40;57.40
33988;DHT22;37428;53.580;-1.666;2023-06-05T08:43:37;15.60;54.70
33988;DHT22;37428;53.580;-1.666;2023-06-05T08:46:41;15.50;55.80
33988;DHT22;37428;53.580;-1.666;2023-06-05T08:49:44;15.60;56.40
33988;DHT22;37428;53.580;-1.666;2023-06-05T08:52:46;16.30;57.10
33988;DHT22;37428;53.580;-1.666;2023-06-05T08:55:54;15.80;55.70
33988;DHT22;37428;53.580;-1.666;2023-06-05T08:58:56;15.70;56.40
33988;DHT22;37428;53.580;-1.666;2023-06-05T09:02:00;15.80;57.10
33988;DHT22;37428;53.580;-1.666;2023-06-05T09:05:02;16.40;55.60
33988;DHT22;37428;53.580;-1.666;2023-06-05T09:08:05;16.60;53.30
33988;DHT22;37428;53.580;-1.666;2023-06-05T09:11:24;17.00;53.80
33988;DHT22;37428;53.580;-1.666;2023-06-05T09:14:27;17.20;53.60
33988;DHT22;37428;53.580;-1.666;2023-06-05T09:17:33;17.20;52.90
33988;DHT22;37428;53.580;-1.666;2023-06-05T09:20:36;17.60;52.20
33988;DHT22;37428;53.580;-1.666;2023-06-05T09:23:39;17.70;51.30
33988;DHT22;37428;53.580;-1.666;2023-06-05T09:26:53;18.00;49.50
33988;DHT22;37428;53.580;-1.666;2023-06-05T09:30:03;18.00;49.30
33988;DHT22;37428;53.580;-1.666;2023-06-05T09:33:10;18.20;48.20
33988;DHT22;37428;53.580;-1.666;2023-06-05T09:36:15;18.30;48.10
33988;DHT22;37428;53.580;-1.666;2023-06-05T09:39:18;18.00;48.70
33988;DHT22;37428;53.580;-1.666;2023-06-05T09:42:31;17.90;50.10
33988;DHT22;37428;53.580;-1.666;2023-06-05T09:45:41;18.30;49.80
33988;DHT22;37428;53.580;-1.666;2023-06-05T09:48:52;18.00;49.60
33988;DHT22;37428;53.580;-1.666;2023-06-05T09:51:56;18.30;49.20
33988;DHT22;37428;53.580;-1.666;2023-06-05T09:54:58;18.10;49.00
33988;DHT22;37428;53.580;-1.666;2023-06-05T09:58:04;17.80;49.70
33988;DHT22;37428;53.580;-1.666;2023-06-05T10:01:12;17.60;51.00
33988;DHT22;37428;53.580;-1.666;2023-06-05T10:04:20;17.60;50.90
33988;DHT22;37428;53.580;-1.666;2023-06-05T10:07:24;18.40;50.70
33988;DHT22;37428;53.580;-1.666;2023-06-05T10:10:26;19.20;49.60
33988;DHT22;37428;53.580;-1.666;2023-06-05T10:13:29;19.80;47.00
33988;DHT22;37428;53.580;-1.666;2023-06-05T10:16:31;20.00;45.90
33988;DHT22;37428;53.580;-1.666;2023-06-05T10:19:35;19.60;45.90
33988;DHT22;37428;53.580;-1.666;2023-06-05T10:22:41;19.70;44.90
33988;DHT22;37428;53.580;-1.666;2023-06-05T10:25:45;19.80;45.40
33988;DHT22;37428;53.580;-1.666;2023-06-05T10:28:53;19.70;44.50
33988;DHT22;37428;53.580;-1.666;2023-06-05T10:32:04;20.00;47.10
33988;DHT22;37428;53.580;-1.666;2023-06-05T10:35:19;20.40;46.50
33988;DHT22;37428;53.580;-1.666;2023-06-05T10:38:25;20.40;43.00
33988;DHT22;37428;53.580;-1.666;2023-06-05T10:41:27;20.40;43.50
33988;DHT22;37428;53.580;-1.666;2023-06-05T10:44:39;20.20;44.00
33988;DHT22;37428;53.580;-1.666;2023-06-05T10:47:53;19.90;44.50
33988;DHT22;37428;53.580;-1.666;2023-06-05T10:51:32;20.00;44.30
33988;DHT22;37428;53.580;-1.666;2023-06-05T10:54:57;19.50;44.40
33988;DHT22;37428;53.580;-1.666;2023-06-05T10:58:09;19.30;47.10
33988;DHT22;37428;53.580;-1.666;2023-06-05T11:01:19;19.20;46.90
33988;DHT22;37428;53.580;-1.666;2023-06-05T11:04:21;19.20;46.70
33988;DHT22;37428;53.580;-1.666;2023-06-05T11:07:27;19.60;46.70
33988;DHT22;37428;53.580;-1.666;2023-06-05T11:10:30;19.80;45.00
33988;DHT22;37428;53.580;-1.666;2023-06-05T11:13:51;19.70;45.50
33988;DHT22;37428;53.580;-1.666;2023-06-05T11:16:53;19.50;45.40
33988;DHT22;37428;53.580;-1.666;2023-06-05T11:19:55;19.40;46.10
33988;DHT22;37428;53.580;-1.666;2023-06-05T11:23:08;19.80;45.90
33988;DHT22;37428;53.580;-1.666;2023-06-05T11:26:39;20.20;43.80
33988;DHT22;37428;53.580;-1.666;2023-06-05T11:29:42;20.20;44.40
33988;DHT22;37428;53.580;-1.666;2023-06-05T11:32:45;20.00;45.00
33988;DHT22;37428;53.580;-1.666;2023-06-05T11:35:48;19.90;43.90
33988;DHT22;37428;53.580;-1.666;2023-06-05T11:38:55;20.20;44.40
33988;DHT22;37428;53.580;-1.666;2023-06-05T11:41:58;20.40;44.50
33988;DHT22;37428;53.580;-1.666;2023-06-05T11:45:00;20.70;44.10
33988;DHT22;37428;53.580;-1.666;2023-06-05T11:48:06;20.70;42.40
33988;DHT22;37428;53.580;-1.666;2023-06-05T11:51:09;20.70;43.90
33988;DHT22;37428;53.580;-1.666;2023-06-05T11:54:23;20.80;42.60
33988;DHT22;37428;53.580;-1.666;2023-06-05T11:57:26;21.40;43.40
33988;DHT22;37428;53.580;-1.666;2023-06-05T12:00:28;21.50;41.50
33988;DHT22;37428;53.580;-1.666;2023-06-05T12:03:31;21.20;41.70
33988;DHT22;37428;53.580;-1.666;2023-06-05T12:06:33;21.00;42.40
33988;DHT22;37428;53.580;-1.666;2023-06-05T12:09:52;21.20;42.00
33988;DHT22;37428;53.580;-1.666;2023-06-05T12:12:54;20.90;42.20
33988;DHT22;37428;53.580;-1.666;2023-06-05T12:15:56;21.10;42.60
33988;DHT22;37428;53.580;-1.666;2023-06-05T12:18:59;21.60;41.80
33988;DHT22;37428;53.580;-1.666;2023-06-05T12:22:02;21.60;41.10
33988;DHT22;37428;53.580;-1.666;2023-06-05T12:25:16;22.10;41.90
33988;DHT22;37428;53.580;-1.666;2023-06-05T12:28:19;21.20;41.60
33988;DHT22;37428;53.580;-1.666;2023-06-05T12:31:35;21.30;42.60
33988;DHT22;37428;53.580;-1.666;2023-06-05T12:34:43;21.60;42.70
33988;DHT22;37428;53.580;-1.666;2023-06-05T12:37:48;21.80;40.80
33988;DHT22;37428;53.580;-1.666;2023-06-05T12:40:51;21.40;41.20
33988;DHT22;37428;53.580;-1.666;2023-06-05T12:44:00;21.30;41.50
33988;DHT22;37428;53.580;-1.666;2023-06-05T12:47:05;21.40;41.10
33988;DHT22;37428;53.580;-1.666;2023-06-05T12:50:08;22.10;40.80
33988;DHT22;37428;53.580;-1.666;2023-06-05T12:53:12;22.20;39.90
33988;DHT22;37428;53.580;-1.666;2023-06-05T12:56:16;22.20;40.20
33988;DHT22;37428;53.580;-1.666;2023-06-05T12:59:18;22.60;39.20
33988;DHT22;37428;53.580;-1.666;2023-06-05T13:02:20;22.20;39.40
33988;DHT22;37428;53.580;-1.666;2023-06-05T13:05:22;22.20;39.80
33988;DHT22;37428;53.580;-1.666;2023-06-05T13:08:25;22.10;40.10
33988;DHT22;37428;53.580;-1.666;2023-06-05T13:11:28;22.30;40.20
33988;DHT22;37428;53.580;-1.666;2023-06-05T13:14:30;22.60;40.10
33988;DHT22;37428;53.580;-1.666;2023-06-05T13:17:32;22.20;40.40
33988;DHT22;37428;53.580;-1.666;2023-06-05T13:20:36;22.40;39.00
33988;DHT22;37428;53.580;-1.666;2023-06-05T13:23:38;22.90;39.70
33988;DHT22;37428;53.580;-1.666;2023-06-05T13:31:03;23.80;37.60
33988;DHT22;37428;53.580;-1.666;2023-06-05T13:34:08;23.30;37.40
33988;DHT22;37428;53.580;-1.666;2023-06-05T13:40:37;22.20;39.80
33988;DHT22;37428;53.580;-1.666;2023-06-05T13:43:51;22.20;39.30
33988;DHT22;37428;53.580;-1.666;2023-06-05T13:47:09;22.00;40.00
33988;DHT22;37428;53.580;-1.666;2023-06-05T13:50:11;22.10;39.50
33988;DHT22;37428;53.580;-1.666;2023-06-05T13:56:40;22.20;38.80
33988;DHT22;37428;53.580;-1.666;2023-06-05T14:03:38;22.40;39.10
33988;DHT22;37428;53.580;-1.666;2023-06-05T14:06:55;21.80;40.00
33988;DHT22;37428;53.580;-1.666;2023-06-05T14:10:20;21.70;40.10
33988;DHT22;37428;53.580;-1.666;2023-06-05T14:13:23;21.70;40.70
33988;DHT22;37428;53.580;-1.666;2023-06-05T14:16:55;21.30;41.00
33988;DHT22;37428;53.580;-1.666;2023-06-05T14:20:00;21.80;40.50
33988;DHT22;37428;53.580;-1.666;2023-06-05T14:23:14;21.20;41.20
33988;DHT22;37428;53.580;-1.666;2023-06-05T14:26:23;21.50;40.90
33988;DHT22;37428;53.580;-1.666;2023-06-05T14:30:05;21.90;40.00
33988;DHT22;37428;53.580;-1.666;2023-06-05T14:33:30;21.80;39.70
33988;DHT22;37428;53.580;-1.666;2023-06-05T14:37:17;22.10;40.10
33988;DHT22;37428;53.580;-1.666;2023-06-05T14:40:19;23.00;39.10
33988;DHT22;37428;53.580;-1.666;2023-06-05T14:43:21;23.20;39.20
33988;DHT22;37428;53.580;-1.666;2023-06-05T14:50:23;23.30;38.00
33988;DHT22;37428;53.580;-1.666;2023-06-05T14:53:53;23.30;37.90
33988;DHT22;37428;53.580;-1.666;2023-06-05T14:56:55;22.80;38.30
33988;DHT22;37428;53.580;-1.666;2023-06-05T14:59:57;22.80;39.50
33988;DHT22;37428;53.580;-1.666;2023-06-05T15:02:59;22.70;39.10
33988;DHT22;37428;53.580;-1.666;2023-06-05T15:06:01;22.60;38.10
33988;DHT22;37428;53.580;-1.666;2023-06-05T15:19:46;22.90;38.40
33988;DHT22;37428;53.580;-1.666;2023-06-05T15:22:48;22.30;38.50
33988;DHT22;37428;53.580;-1.666;2023-06-05T15:25:52;22.30;39.10
33988;DHT22;37428;53.580;-1.666;2023-06-05T15:28:54;21.90;39.20
33988;DHT22;37428;53.580;-1.666;2023-06-05T15:31:57;21.70;40.00
33988;DHT22;37428;53.580;-1.666;2023-06-05T15:35:02;22.20;39.80
33988;DHT22;37428;53.580;-1.666;2023-06-05T15:38:10;22.10;40.00
33988;DHT22;37428;53.580;-1.666;2023-06-05T15:41:15;22.10;39.60
33988;DHT22;37428;53.580;-1.666;2023-06-05T15:44:52;21.60;40.70
33988;DHT22;37428;53.580;-1.666;2023-06-05T15:48:37;21.70;40.30
33988;DHT22;37428;53.580;-1.666;2023-06-05T15:51:56;22.10;40.10
33988;DHT22;37428;53.580;-1.666;2023-06-05T15:55:01;22.40;39.20
33988;DHT22;37428;53.580;-1.666;2023-06-05T15:58:07;22.00;40.40
33988;DHT22;37428;53.580;-1.666;2023-06-05T16:01:09;21.60;40.90
33988;DHT22;37428;53.580;-1.666;2023-06-05T16:04:11;21.70;41.90
33988;DHT22;37428;53.580;-1.666;2023-06-05T16:07:27;21.90;41.20
33988;DHT22;37428;53.580;-1.666;2023-06-05T16:10:38;21.60;41.20
33988;DHT22;37428;53.580;-1.666;2023-06-05T16:14:04;21.40;41.50
33988;DHT22;37428;53.580;-1.666;2023-06-05T16:17:33;21.40;41.60
33988;DHT22;37428;53.580;-1.666;2023-06-05T16:20:42;21.50;41.90
33988;DHT22;37428;53.580;-1.666;2023-06-05T16:23:55;21.60;42.00
33988;DHT22;37428;53.580;-1.666;2023-06-05T16:27:12;21.50;41.30
33988;DHT22;37428;53.580;-1.666;2023-06-05T16:30:36;21.10;42.30
33988;DHT22;37428;53.580;-1.666;2023-06-05T16:37:21;20.30;43.60
33988;DHT22;37428;53.580;-1.666;2023-06-05T16:40:53;20.00;44.00
33988;DHT22;37428;53.580;-1.666;2023-06-05T16:44:07;20.10;44.40
33988;DHT22;37428;53.580;-1.666;2023-06-05T16:47:45;19.90;44.40
33988;DHT22;37428;53.580;-1.666;2023-06-05T16:50:54;19.80;44.80
33988;DHT22;37428;53.580;-1.666;2023-06-05T16:54:00;19.60;45.10
33988;DHT22;37428;53.580;-1.666;2023-06-05T17:00:53;19.50;45.70
33988;DHT22;37428;53.580;-1.666;2023-06-05T17:04:26;19.50;46.10
33988;DHT22;37428;53.580;-1.666;2023-06-05T17:07:34;19.30;46.60
33988;DHT22;37428;53.580;-1.666;2023-06-05T17:10:47;19.10;48.00
33988;DHT22;37428;53.580;-1.666;2023-06-05T17:13:49;19.30;46.90
33988;DHT22;37428;53.580;-1.666;2023-06-05T17:20:38;18.60;48.40
33988;DHT22;37428;53.580;-1.666;2023-06-05T17:23:54;18.50;48.70
33988;DHT22;37428;53.580;-1.666;2023-06-05T17:27:09;18.20;49.40
33988;DHT22;37428;53.580;-1.666;2023-06-05T17:30:41;18.10;49.60
33988;DHT22;37428;53.580;-1.666;2023-06-05T17:34:07;17.80;50.20
33988;DHT22;37428;53.580;-1.666;2023-06-05T17:37:38;17.80;50.70
33988;DHT22;37428;53.580;-1.666;2023-06-05T17:41:34;17.70;51.10
33988;DHT22;37428;53.580;-1.666;2023-06-05T17:44:28;17.50;51.50
33988;DHT22;37428;53.580;-1.666;2023-06-05T17:47:30;17.40;51.80
33988;DHT22;37428;53.580;-1.666;2023-06-05T17:50:56;17.20;52.40
33988;DHT22;37428;53.580;-1.666;2023-06-05T17:54:02;17.30;52.90
33988;DHT22;37428;53.580;-1.666;2023-06-05T17:57:21;17.10;52.90
33988;DHT22;37428;53.580;-1.666;2023-06-05T18:00:44;17.10;52.90
33988;DHT22;37428;53.580;-1.666;2023-06-05T18:03:58;17.00;53.00
33988;DHT22;37428;53.580;-1.666;2023-06-05T18:07:23;16.80;53.20
33988;DHT22;37428;53.580;-1.666;2023-06-05T18:13:57;16.60;54.20
33988;DHT22;37428;53.580;-1.666;2023-06-05T18:17:14;16.30;54.00
33988;DHT22;37428;53.580;-1.666;2023-06-05T18:22:36;16.20;54.60
33988;DHT22;37428;53.580;-1.666;2023-06-05T18:25:01;16.10;54.70
33988;DHT22;37428;53.580;-1.666;2023-06-05T18:27:57;15.90;55.30
33988;DHT22;37428;53.580;-1.666;2023-06-05T18:31:02;15.80;55.70
33988;DHT22;37428;53.580;-1.666;2023-06-05T18:34:05;15.70;56.10
33988;DHT22;37428;53.580;-1.666;2023-06-05T18:37:07;15.70;55.90
33988;DHT22;37428;53.580;-1.666;2023-06-05T18:40:52;15.60;56.60
33988;DHT22;37428;53.580;-1.666;2023-06-05T18:43:46;15.70;57.00
33988;DHT22;37428;53.580;-1.666;2023-06-05T18:46:49;15.60;57.30
33988;DHT22;37428;53.580;-1.666;2023-06-05T18:52:06;15.50;57.20
33988;DHT22;37428;53.580;-1.666;2023-06-05T18:53:34;15.60;57.40
33988;DHT22;37428;53.580;-1.666;2023-06-05T18:56:38;15.60;56.60
33988;DHT22;37428;53.580;-1.666;2023-06-05T18:59:59;15.40;57.30
33988;DHT22;37428;53.580;-1.666;2023-06-05T19:03:22;15.30;57.60
33988;DHT22;37428;53.580;-1.666;2023-06-05T19:06:34;15.40;58.10
33988;DHT22;37428;53.580;-1.666;2023-06-05T19:09:47;15.20;59.50
33988;DHT22;37428;53.580;-1.666;2023-06-05T19:12:51;15.10;60.10
33988;DHT22;37428;53.580;-1.666;2023-06-05T19:15:57;15.00;60.80
33988;DHT22;37428;53.580;-1.666;2023-06-05T19:18:59;14.90;61.30
33988;DHT22;37428;53.580;-1.666;2023-06-05T19:25:56;14.70;62.00
33988;DHT22;37428;53.580;-1.666;2023-06-05T19:28:59;14.60;62.10
33988;DHT22;37428;53.580;-1.666;2023-06-05T19:39:50;14.40;63.30
33988;DHT22;37428;53.580;-1.666;2023-06-05T19:42:52;14.30;63.70
33988;DHT22;37428;53.580;-1.666;2023-06-05T19:45:56;14.10;64.00
33988;DHT22;37428;53.580;-1.666;2023-06-05T19:49:38;14.00;64.30
33988;DHT22;37428;53.580;-1.666;2023-06-05T19:52:59;13.80;64.70
33988;DHT22;37428;53.580;-1.666;2023-06-05T19:56:46;13.70;65.40
33988;DHT22;37428;53.580;-1.666;2023-06-05T19:59:54;13.60;65.70
33988;DHT22;37428;53.580;-1.666;2023-06-05T20:06:26;13.50;66.20
33988;DHT22;37428;53.580;-1.666;2023-06-05T20:11:23;13.50;66.40
33988;DHT22;37428;53.580;-1.666;2023-06-05T20:13:16;13.40;66.50
33988;DHT22;37428;53.580;-1.666;2023-06-05T20:16:42;13.30;67.00
33988;DHT22;37428;53.580;-1.666;2023-06-05T20:20:12;13.10;67.30
33988;DHT22;37428;53.580;-1.666;2023-06-05T20:23:30;13.00;67.70